sensor_id;sensor_type;location;lat;lon;timestamp;temperature;humidity
20911;DHT22;10615;42.702;23.314;2023-10-31T00:00:16;13.90;77.00
20911;DHT22;10615;42.702;23.314;2023-10-31T00:01:17;14.00;77.00
20911;DHT22;10615;42.702;23.314;2023-10-31T00:02:17;14.00;77.00
20911;DHT22;10615;42.702;23.314;2023-10-31T00:03:18;14.00;77.00
20911;DHT22;10615;42.702;23.314;2023-10-31T00:04:18;14.00;77.00
20911;DHT22;10615;42.702;23.314;2023-10-31T00:05:19;14.00;77.00
20911;DHT22;10615;42.702;23.314;2023-10-31T00:06:20;14.00;76.90
20911;DHT22;10615;42.702;23.314;2023-10-31T00:07:20;14.00;76.90
20911;DHT22;10615;42.702;23.314;2023-10-31T00:08:21;14.00;76.80
20911;DHT22;10615;42.702;23.314;2023-10-31T00:09:21;14.00;76.70
20911;DHT22;10615;42.702;23.314;2023-10-31T00:10:22;14.00;76.70
20911;DHT22;10615;42.702;23.314;2023-10-31T00:11:22;14.00;76.70
20911;DHT22;10615;42.702;23.314;2023-10-31T00:12:23;14.00;76.70
20911;DHT22;10615;42.702;23.314;2023-10-31T00:13:23;13.90;76.70
20911;DHT22;10615;42.702;23.314;2023-10-31T00:14:24;13.90;76.80
20911;DHT22;10615;42.702;23.314;2023-10-31T00:15:25;13.80;76.80
20911;DHT22;10615;42.702;23.314;2023-10-31T00:16:25;13.80;77.10
20911;DHT22;10615;42.702;23.314;2023-10-31T00:17:26;13.80;77.30
20911;DHT22;10615;42.702;23.314;2023-10-31T00:18:27;13.80;77.40
20911;DHT22;10615;42.702;23.314;2023-10-31T00:19:28;13.70;77.40
20911;DHT22;10615;42.702;23.314;2023-10-31T00:20:28;13.70;77.50
20911;DHT22;10615;42.702;23.314;2023-10-31T00:21:29;13.80;77.60
20911;DHT22;10615;42.702;23.314;2023-10-31T00:22:30;13.70;77.60
20911;DHT22;10615;42.702;23.314;2023-10-31T00:23:31;13.70;77.60
20911;DHT22;10615;42.702;23.314;2023-10-31T00:24:31;13.70;77.60
20911;DHT22;10615;42.702;23.314;2023-10-31T00:25:35;13.70;77.70
20911;DHT22;10615;42.702;23.314;2023-10-31T00:26:35;13.70;77.80
20911;DHT22;10615;42.702;23.314;2023-10-31T00:27:36;13.70;77.80
20911;DHT22;10615;42.702;23.314;2023-10-31T00:28:36;13.70;77.90
20911;DHT22;10615;42.702;23.314;2023-10-31T00:29:37;13.60;78.00
20911;DHT22;10615;42.702;23.314;2023-10-31T00:30:38;13.60;78.10
20911;DHT22;10615;42.702;23.314;2023-10-31T00:31:38;13.70;78.20
20911;DHT22;10615;42.702;23.314;2023-10-31T00:32:41;13.60;78.40
20911;DHT22;10615;42.702;23.314;2023-10-31T00:33:42;13.60;78.40
20911;DHT22;10615;42.702;23.314;2023-10-31T00:34:42;13.60;78.50
20911;DHT22;10615;42.702;23.314;2023-10-31T00:35:43;13.60;78.50
20911;DHT22;10615;42.702;23.314;2023-10-31T00:36:44;13.60;78.60
20911;DHT22;10615;42.702;23.314;2023-10-31T00:37:44;13.60;78.60
20911;DHT22;10615;42.702;23.314;2023-10-31T00:38:45;13.60;78.60
20911;DHT22;10615;42.702;23.314;2023-10-31T00:39:45;13.60;78.60
20911;DHT22;10615;42.702;23.314;2023-10-31T00:40:46;13.60;78.60
20911;DHT22;10615;42.702;23.314;2023-10-31T00:41:47;13.60;78.60
20911;DHT22;10615;42.702;23.314;2023-10-31T00:42:47;13.60;78.60
20911;DHT22;10615;42.702;23.314;2023-10-31T00:43:48;13.60;78.60
20911;DHT22;10615;42.702;23.314;2023-10-31T00:44:49;13.60;78.50
20911;DHT22;10615;42.702;23.314;2023-10-31T00:45:49;13.60;78.50
20911;DHT22;10615;42.702;23.314;2023-10-31T00:46:50;13.60;78.50
20911;DHT22;10615;42.702;23.314;2023-10-31T00:47:50;13.60;78.60
20911;DHT22;10615;42.702;23.314;2023-10-31T00:48:51;13.60;78.60
20911;DHT22;10615;42.702;23.314;2023-10-31T00:49:52;13.60;78.50
20911;DHT22;10615;42.702;23.314;2023-10-31T00:50:53;13.60;78.30
20911;DHT22;10615;42.702;23.314;2023-10-31T00:51:54;13.60;78.40
20911;DHT22;10615;42.702;23.314;2023-10-31T00:52:54;13.60;78.40
20911;DHT22;10615;42.702;23.314;2023-10-31T00:53:55;13.60;78.50
20911;DHT22;10615;42.702;23.314;2023-10-31T00:54:56;13.50;78.60
20911;DHT22;10615;42.702;23.314;2023-10-31T00:55:57;13.50;78.70
20911;DHT22;10615;42.702;23.314;2023-10-31T00:56:57;13.50;78.70
20911;DHT22;10615;42.702;23.314;2023-10-31T00:57:58;13.50;78.60
20911;DHT22;10615;42.702;23.314;2023-10-31T00:58:59;13.50;78.60
20911;DHT22;10615;42.702;23.314;2023-10-31T00:59:59;13.50;78.60
20911;DHT22;10615;42.702;23.314;2023-10-31T01:01:00;13.50;78.60
20911;DHT22;10615;42.702;23.314;2023-10-31T01:02:00;13.50;78.60
20911;DHT22;10615;42.702;23.314;2023-10-31T01:03:01;13.50;78.60
20911;DHT22;10615;42.702;23.314;2023-10-31T01:04:02;13.50;78.80
20911;DHT22;10615;42.702;23.314;2023-10-31T01:05:03;13.40;78.80
20911;DHT22;10615;42.702;23.314;2023-10-31T01:06:04;13.50;79.00
20911;DHT22;10615;42.702;23.314;2023-10-31T01:07:04;13.40;79.10
20911;DHT22;10615;42.702;23.314;2023-10-31T01:08:05;13.30;79.30
20911;DHT22;10615;42.702;23.314;2023-10-31T01:09:05;13.30;79.40
20911;DHT22;10615;42.702;23.314;2023-10-31T01:10:06;13.30;79.50
20911;DHT22;10615;42.702;23.314;2023-10-31T01:11:07;13.30;80.40
20911;DHT22;10615;42.702;23.314;2023-10-31T01:12:08;13.30;79.60
20911;DHT22;10615;42.702;23.314;2023-10-31T01:13:10;13.30;79.60
20911;DHT22;10615;42.702;23.314;2023-10-31T01:14:11;13.40;79.50
20911;DHT22;10615;42.702;23.314;2023-10-31T01:15:11;13.30;79.40
20911;DHT22;10615;42.702;23.314;2023-10-31T01:16:12;13.30;79.70
20911;DHT22;10615;42.702;23.314;2023-10-31T01:17:13;13.30;79.80
20911;DHT22;10615;42.702;23.314;2023-10-31T01:18:14;13.30;79.80
20911;DHT22;10615;42.702;23.314;2023-10-31T01:19:14;13.20;79.70
20911;DHT22;10615;42.702;23.314;2023-10-31T01:20:15;13.20;79.80
20911;DHT22;10615;42.702;23.314;2023-10-31T01:21:16;13.10;80.00
20911;DHT22;10615;42.702;23.314;2023-10-31T01:22:16;13.10;80.20
20911;DHT22;10615;42.702;23.314;2023-10-31T01:23:17;13.10;80.20
20911;DHT22;10615;42.702;23.314;2023-10-31T01:24:18;13.10;80.20
20911;DHT22;10615;42.702;23.314;2023-10-31T01:25:18;13.00;80.40
20911;DHT22;10615;42.702;23.314;2023-10-31T01:26:19;13.00;80.90
20911;DHT22;10615;42.702;23.314;2023-10-31T01:27:19;12.90;81.00
20911;DHT22;10615;42.702;23.314;2023-10-31T01:28:20;12.90;81.10
20911;DHT22;10615;42.702;23.314;2023-10-31T01:29:21;12.90;81.30
20911;DHT22;10615;42.702;23.314;2023-10-31T01:30:21;12.90;81.30
20911;DHT22;10615;42.702;23.314;2023-10-31T01:31:22;12.90;81.30
20911;DHT22;10615;42.702;23.314;2023-10-31T01:32:23;12.90;81.30
20911;DHT22;10615;42.702;23.314;2023-10-31T01:33:23;13.00;81.30
20911;DHT22;10615;42.702;23.314;2023-10-31T01:34:24;13.00;81.30
20911;DHT22;10615;42.702;23.314;2023-10-31T01:35:25;13.00;81.20
20911;DHT22;10615;42.702;23.314;2023-10-31T01:36:25;13.00;81.10
20911;DHT22;10615;42.702;23.314;2023-10-31T01:37:29;13.10;81.10
20911;DHT22;10615;42.702;23.314;2023-10-31T01:38:30;13.00;81.10
20911;DHT22;10615;42.702;23.314;2023-10-31T01:39:31;13.10;81.00
20911;DHT22;10615;42.702;23.314;2023-10-31T01:40:31;13.10;80.90
20911;DHT22;10615;42.702;23.314;2023-10-31T01:41:32;13.10;80.80
20911;DHT22;10615;42.702;23.314;2023-10-31T01:42:32;13.10;80.60
20911;DHT22;10615;42.702;23.314;2023-10-31T01:43:36;13.10;80.70
20911;DHT22;10615;42.702;23.314;2023-10-31T01:44:36;13.00;80.70
20911;DHT22;10615;42.702;23.314;2023-10-31T01:45:37;13.00;81.00
20911;DHT22;10615;42.702;23.314;2023-10-31T01:46:38;13.00;81.10
20911;DHT22;10615;42.702;23.314;2023-10-31T01:47:38;12.90;81.20
20911;DHT22;10615;42.702;23.314;2023-10-31T01:48:39;13.00;81.30
20911;DHT22;10615;42.702;23.314;2023-10-31T01:49:40;13.00;82.20
20911;DHT22;10615;42.702;23.314;2023-10-31T01:50:41;13.00;81.30
20911;DHT22;10615;42.702;23.314;2023-10-31T01:51:42;12.90;81.20
20911;DHT22;10615;42.702;23.314;2023-10-31T01:52:43;13.00;81.30
20911;DHT22;10615;42.702;23.314;2023-10-31T01:53:44;12.90;81.30
20911;DHT22;10615;42.702;23.314;2023-10-31T01:54:44;12.90;81.40
20911;DHT22;10615;42.702;23.314;2023-10-31T01:55:46;12.90;81.50
20911;DHT22;10615;42.702;23.314;2023-10-31T01:56:46;12.90;81.60
20911;DHT22;10615;42.702;23.314;2023-10-31T01:57:51;12.90;81.60
20911;DHT22;10615;42.702;23.314;2023-10-31T01:58:53;12.90;81.50
20911;DHT22;10615;42.702;23.314;2023-10-31T01:59:53;12.90;81.50
20911;DHT22;10615;42.702;23.314;2023-10-31T02:00:55;12.90;81.50
20911;DHT22;10615;42.702;23.314;2023-10-31T02:01:57;12.90;81.50
20911;DHT22;10615;42.702;23.314;2023-10-31T02:02:58;12.90;81.50
20911;DHT22;10615;42.702;23.314;2023-10-31T02:03:59;12.90;81.70
20911;DHT22;10615;42.702;23.314;2023-10-31T02:05:02;12.90;81.80
20911;DHT22;10615;42.702;23.314;2023-10-31T02:06:03;12.90;81.80
20911;DHT22;10615;42.702;23.314;2023-10-31T02:07:04;12.90;81.80
20911;DHT22;10615;42.702;23.314;2023-10-31T02:08:05;12.90;81.80
20911;DHT22;10615;42.702;23.314;2023-10-31T02:09:08;12.90;81.50
20911;DHT22;10615;42.702;23.314;2023-10-31T02:10:09;12.90;81.50
20911;DHT22;10615;42.702;23.314;2023-10-31T02:11:09;12.90;81.60
20911;DHT22;10615;42.702;23.314;2023-10-31T02:12:10;12.90;81.70
20911;DHT22;10615;42.702;23.314;2023-10-31T02:13:12;12.90;81.80
20911;DHT22;10615;42.702;23.314;2023-10-31T02:14:13;12.90;81.90
20911;DHT22;10615;42.702;23.314;2023-10-31T02:15:13;12.90;81.90
20911;DHT22;10615;42.702;23.314;2023-10-31T02:16:14;12.90;82.00
20911;DHT22;10615;42.702;23.314;2023-10-31T02:17:15;12.90;82.10
20911;DHT22;10615;42.702;23.314;2023-10-31T02:18:16;12.90;82.10
20911;DHT22;10615;42.702;23.314;2023-10-31T02:19:20;12.90;82.00
20911;DHT22;10615;42.702;23.314;2023-10-31T02:20:21;12.80;82.00
20911;DHT22;10615;42.702;23.314;2023-10-31T02:21:21;12.80;82.10
20911;DHT22;10615;42.702;23.314;2023-10-31T02:22:23;12.90;82.20
20911;DHT22;10615;42.702;23.314;2023-10-31T02:23:23;12.80;82.10
20911;DHT22;10615;42.702;23.314;2023-10-31T02:24:24;12.80;82.10
20911;DHT22;10615;42.702;23.314;2023-10-31T02:25:25;12.80;82.30
20911;DHT22;10615;42.702;23.314;2023-10-31T02:26:34;12.80;82.40
20911;DHT22;10615;42.702;23.314;2023-10-31T02:27:35;12.80;82.40
20911;DHT22;10615;42.702;23.314;2023-10-31T02:28:36;12.80;82.20
20911;DHT22;10615;42.702;23.314;2023-10-31T02:29:39;12.80;82.30
20911;DHT22;10615;42.702;23.314;2023-10-31T02:30:40;12.80;82.30
20911;DHT22;10615;42.702;23.314;2023-10-31T02:31:41;12.80;82.30
20911;DHT22;10615;42.702;23.314;2023-10-31T02:32:42;12.80;82.30
20911;DHT22;10615;42.702;23.314;2023-10-31T02:33:43;12.80;82.40
20911;DHT22;10615;42.702;23.314;2023-10-31T02:34:46;12.80;82.40
20911;DHT22;10615;42.702;23.314;2023-10-31T02:35:47;12.80;82.50
20911;DHT22;10615;42.702;23.314;2023-10-31T02:36:48;12.80;82.60
20911;DHT22;10615;42.702;23.314;2023-10-31T02:37:49;12.80;82.50
20911;DHT22;10615;42.702;23.314;2023-10-31T02:38:50;12.70;82.60
20911;DHT22;10615;42.702;23.314;2023-10-31T02:39:50;12.70;82.80
20911;DHT22;10615;42.702;23.314;2023-10-31T02:40:51;12.70;82.90
20911;DHT22;10615;42.702;23.314;2023-10-31T02:41:52;12.80;83.00
20911;DHT22;10615;42.702;23.314;2023-10-31T02:42:52;12.60;82.80
20911;DHT22;10615;42.702;23.314;2023-10-31T02:43:53;12.70;82.90
20911;DHT22;10615;42.702;23.314;2023-10-31T02:44:55;12.70;82.80
20911;DHT22;10615;42.702;23.314;2023-10-31T02:45:56;12.70;83.10
20911;DHT22;10615;42.702;23.314;2023-10-31T02:46:56;12.70;83.20
20911;DHT22;10615;42.702;23.314;2023-10-31T02:47:57;12.70;83.30
20911;DHT22;10615;42.702;23.314;2023-10-31T02:48:58;12.70;83.30
20911;DHT22;10615;42.702;23.314;2023-10-31T02:49:59;12.70;83.30
20911;DHT22;10615;42.702;23.314;2023-10-31T02:51:00;12.70;83.20
20911;DHT22;10615;42.702;23.314;2023-10-31T02:52:00;12.70;83.10
20911;DHT22;10615;42.702;23.314;2023-10-31T02:53:02;12.70;83.10
20911;DHT22;10615;42.702;23.314;2023-10-31T02:54:03;12.70;83.10
20911;DHT22;10615;42.702;23.314;2023-10-31T02:55:04;12.70;83.10
20911;DHT22;10615;42.702;23.314;2023-10-31T02:56:05;12.70;83.20
20911;DHT22;10615;42.702;23.314;2023-10-31T02:57:05;12.70;83.30
20911;DHT22;10615;42.702;23.314;2023-10-31T02:58:06;12.70;83.30
20911;DHT22;10615;42.702;23.314;2023-10-31T02:59:07;12.70;83.40
20911;DHT22;10615;42.702;23.314;2023-10-31T03:00:07;12.70;83.40
20911;DHT22;10615;42.702;23.314;2023-10-31T03:01:08;12.70;83.40
20911;DHT22;10615;42.702;23.314;2023-10-31T03:02:09;12.60;83.40
20911;DHT22;10615;42.702;23.314;2023-10-31T03:03:09;12.70;83.40
20911;DHT22;10615;42.702;23.314;2023-10-31T03:04:10;12.60;83.40
20911;DHT22;10615;42.702;23.314;2023-10-31T03:05:11;12.60;83.30
20911;DHT22;10615;42.702;23.314;2023-10-31T03:06:11;12.60;83.40
20911;DHT22;10615;42.702;23.314;2023-10-31T03:07:12;12.60;83.40
20911;DHT22;10615;42.702;23.314;2023-10-31T03:08:12;12.60;83.50
20911;DHT22;10615;42.702;23.314;2023-10-31T03:09:13;12.60;83.40
20911;DHT22;10615;42.702;23.314;2023-10-31T03:10:14;12.60;83.40
20911;DHT22;10615;42.702;23.314;2023-10-31T03:11:22;12.60;83.40
20911;DHT22;10615;42.702;23.314;2023-10-31T03:12:23;12.60;83.40
20911;DHT22;10615;42.702;23.314;2023-10-31T03:13:24;12.50;83.10
20911;DHT22;10615;42.702;23.314;2023-10-31T03:14:25;12.50;83.10
20911;DHT22;10615;42.702;23.314;2023-10-31T03:15:26;12.50;82.90
20911;DHT22;10615;42.702;23.314;2023-10-31T03:16:27;12.50;82.80
20911;DHT22;10615;42.702;23.314;2023-10-31T03:17:28;12.50;82.70
20911;DHT22;10615;42.702;23.314;2023-10-31T03:18:29;12.50;82.60
20911;DHT22;10615;42.702;23.314;2023-10-31T03:19:30;12.50;82.40
20911;DHT22;10615;42.702;23.314;2023-10-31T03:20:30;12.50;82.30
20911;DHT22;10615;42.702;23.314;2023-10-31T03:21:31;12.50;82.20
20911;DHT22;10615;42.702;23.314;2023-10-31T03:22:32;12.50;82.00
20911;DHT22;10615;42.702;23.314;2023-10-31T03:23:33;12.50;82.00
20911;DHT22;10615;42.702;23.314;2023-10-31T03:24:33;12.40;81.90
20911;DHT22;10615;42.702;23.314;2023-10-31T03:25:34;12.40;81.90
20911;DHT22;10615;42.702;23.314;2023-10-31T03:26:35;12.40;81.90
20911;DHT22;10615;42.702;23.314;2023-10-31T03:27:35;12.30;81.90
20911;DHT22;10615;42.702;23.314;2023-10-31T03:28:36;12.30;82.10
20911;DHT22;10615;42.702;23.314;2023-10-31T03:29:37;12.30;82.10
20911;DHT22;10615;42.702;23.314;2023-10-31T03:30:37;12.30;82.10
20911;DHT22;10615;42.702;23.314;2023-10-31T03:31:38;12.20;82.00
20911;DHT22;10615;42.702;23.314;2023-10-31T03:32:39;12.10;82.20
20911;DHT22;10615;42.702;23.314;2023-10-31T03:33:40;12.10;82.40
20911;DHT22;10615;42.702;23.314;2023-10-31T03:34:41;12.00;82.60
20911;DHT22;10615;42.702;23.314;2023-10-31T03:35:42;12.00;82.70
20911;DHT22;10615;42.702;23.314;2023-10-31T03:36:43;12.00;82.80
20911;DHT22;10615;42.702;23.314;2023-10-31T03:37:43;12.00;82.80
20911;DHT22;10615;42.702;23.314;2023-10-31T03:38:44;11.90;82.80
20911;DHT22;10615;42.702;23.314;2023-10-31T03:39:45;11.90;82.80
20911;DHT22;10615;42.702;23.314;2023-10-31T03:40:45;11.80;82.90
20911;DHT22;10615;42.702;23.314;2023-10-31T03:41:46;11.70;83.90
20911;DHT22;10615;42.702;23.314;2023-10-31T03:42:47;11.70;83.30
20911;DHT22;10615;42.702;23.314;2023-10-31T03:43:47;11.70;84.50
20911;DHT22;10615;42.702;23.314;2023-10-31T03:44:48;11.70;83.90
20911;DHT22;10615;42.702;23.314;2023-10-31T03:45:49;11.70;84.20
20911;DHT22;10615;42.702;23.314;2023-10-31T03:46:50;11.70;84.40
20911;DHT22;10615;42.702;23.314;2023-10-31T03:47:50;11.70;84.50
20911;DHT22;10615;42.702;23.314;2023-10-31T03:48:51;11.70;84.40
20911;DHT22;10615;42.702;23.314;2023-10-31T03:49:51;11.70;84.70
20911;DHT22;10615;42.702;23.314;2023-10-31T03:50:52;11.60;84.70
20911;DHT22;10615;42.702;23.314;2023-10-31T03:51:53;11.70;84.70
20911;DHT22;10615;42.702;23.314;2023-10-31T03:52:54;11.70;84.70
20911;DHT22;10615;42.702;23.314;2023-10-31T03:53:54;11.70;84.70
20911;DHT22;10615;42.702;23.314;2023-10-31T03:54:55;11.70;84.80
20911;DHT22;10615;42.702;23.314;2023-10-31T03:55:55;11.60;84.80
20911;DHT22;10615;42.702;23.314;2023-10-31T03:56:58;11.60;84.80
20911;DHT22;10615;42.702;23.314;2023-10-31T03:57:59;11.70;84.80
20911;DHT22;10615;42.702;23.314;2023-10-31T03:59:00;11.70;84.80
20911;DHT22;10615;42.702;23.314;2023-10-31T04:00:01;11.60;84.70
20911;DHT22;10615;42.702;23.314;2023-10-31T04:01:03;11.70;84.70
20911;DHT22;10615;42.702;23.314;2023-10-31T04:02:04;11.60;84.60
20911;DHT22;10615;42.702;23.314;2023-10-31T04:03:05;11.70;84.50
20911;DHT22;10615;42.702;23.314;2023-10-31T04:04:05;11.70;84.40
20911;DHT22;10615;42.702;23.314;2023-10-31T04:05:07;11.70;84.40
20911;DHT22;10615;42.702;23.314;2023-10-31T04:06:07;11.70;84.20
20911;DHT22;10615;42.702;23.314;2023-10-31T04:07:08;11.70;84.00
20911;DHT22;10615;42.702;23.314;2023-10-31T04:08:09;11.70;83.80
20911;DHT22;10615;42.702;23.314;2023-10-31T04:09:09;11.70;83.60
20911;DHT22;10615;42.702;23.314;2023-10-31T04:10:10;11.70;83.50
20911;DHT22;10615;42.702;23.314;2023-10-31T04:11:11;11.70;83.30
20911;DHT22;10615;42.702;23.314;2023-10-31T04:12:11;11.70;83.30
20911;DHT22;10615;42.702;23.314;2023-10-31T04:13:13;11.70;83.30
20911;DHT22;10615;42.702;23.314;2023-10-31T04:14:13;11.60;83.30
20911;DHT22;10615;42.702;23.314;2023-10-31T04:15:14;11.70;83.40
20911;DHT22;10615;42.702;23.314;2023-10-31T04:16:14;11.70;83.40
20911;DHT22;10615;42.702;23.314;2023-10-31T04:17:15;11.70;83.30
20911;DHT22;10615;42.702;23.314;2023-10-31T04:18:16;11.60;83.30
20911;DHT22;10615;42.702;23.314;2023-10-31T04:19:17;11.60;83.40
20911;DHT22;10615;42.702;23.314;2023-10-31T04:20:17;11.60;83.50
20911;DHT22;10615;42.702;23.314;2023-10-31T04:21:18;11.50;83.60
20911;DHT22;10615;42.702;23.314;2023-10-31T04:22:19;11.40;83.80
20911;DHT22;10615;42.702;23.314;2023-10-31T04:23:19;11.40;84.00
20911;DHT22;10615;42.702;23.314;2023-10-31T04:24:20;11.30;84.00
20911;DHT22;10615;42.702;23.314;2023-10-31T04:25:21;11.30;84.30
20911;DHT22;10615;42.702;23.314;2023-10-31T04:26:21;11.20;84.40
20911;DHT22;10615;42.702;23.314;2023-10-31T04:27:22;11.20;84.80
20911;DHT22;10615;42.702;23.314;2023-10-31T04:29:24;11.10;84.50
20911;DHT22;10615;42.702;23.314;2023-10-31T04:30:25;11.00;85.50
20911;DHT22;10615;42.702;23.314;2023-10-31T04:31:26;11.00;85.80
20911;DHT22;10615;42.702;23.314;2023-10-31T04:32:27;11.00;86.10
20911;DHT22;10615;42.702;23.314;2023-10-31T04:33:28;11.00;86.20
20911;DHT22;10615;42.702;23.314;2023-10-31T04:34:28;11.00;86.30
20911;DHT22;10615;42.702;23.314;2023-10-31T04:35:29;11.00;86.40
20911;DHT22;10615;42.702;23.314;2023-10-31T04:36:30;11.00;86.50
20911;DHT22;10615;42.702;23.314;2023-10-31T04:37:30;11.00;86.60
20911;DHT22;10615;42.702;23.314;2023-10-31T04:38:31;11.00;86.50
20911;DHT22;10615;42.702;23.314;2023-10-31T04:39:32;11.00;86.60
20911;DHT22;10615;42.702;23.314;2023-10-31T04:40:32;11.00;86.80
20911;DHT22;10615;42.702;23.314;2023-10-31T04:41:33;11.10;86.90
20911;DHT22;10615;42.702;23.314;2023-10-31T04:42:34;11.10;87.00
20911;DHT22;10615;42.702;23.314;2023-10-31T04:43:34;11.10;86.80
20911;DHT22;10615;42.702;23.314;2023-10-31T04:44:35;11.10;86.90
20911;DHT22;10615;42.702;23.314;2023-10-31T04:45:35;11.20;87.10
20911;DHT22;10615;42.702;23.314;2023-10-31T04:46:36;11.20;86.80
20911;DHT22;10615;42.702;23.314;2023-10-31T04:47:37;11.20;86.60
20911;DHT22;10615;42.702;23.314;2023-10-31T04:48:38;11.30;86.50
20911;DHT22;10615;42.702;23.314;2023-10-31T04:49:39;11.30;86.30
20911;DHT22;10615;42.702;23.314;2023-10-31T04:50:39;11.30;86.30
20911;DHT22;10615;42.702;23.314;2023-10-31T04:51:40;11.40;86.30
20911;DHT22;10615;42.702;23.314;2023-10-31T04:52:41;11.40;86.20
20911;DHT22;10615;42.702;23.314;2023-10-31T04:53:42;11.40;86.00
20911;DHT22;10615;42.702;23.314;2023-10-31T04:54:43;11.40;85.90
20911;DHT22;10615;42.702;23.314;2023-10-31T04:55:43;11.50;85.80
20911;DHT22;10615;42.702;23.314;2023-10-31T04:56:44;11.40;85.70
20911;DHT22;10615;42.702;23.314;2023-10-31T04:57:45;11.40;85.70
20911;DHT22;10615;42.702;23.314;2023-10-31T04:58:45;11.40;85.70
20911;DHT22;10615;42.702;23.314;2023-10-31T04:59:46;11.40;85.50
20911;DHT22;10615;42.702;23.314;2023-10-31T05:00:47;11.40;85.70
20911;DHT22;10615;42.702;23.314;2023-10-31T05:01:51;11.40;85.80
20911;DHT22;10615;42.702;23.314;2023-10-31T05:02:52;11.40;86.00
20911;DHT22;10615;42.702;23.314;2023-10-31T05:03:53;11.40;86.00
20911;DHT22;10615;42.702;23.314;2023-10-31T05:04:53;11.50;86.10
20911;DHT22;10615;42.702;23.314;2023-10-31T05:05:54;11.50;86.00
20911;DHT22;10615;42.702;23.314;2023-10-31T05:06:55;11.50;86.00
20911;DHT22;10615;42.702;23.314;2023-10-31T05:07:56;11.50;85.90
20911;DHT22;10615;42.702;23.314;2023-10-31T05:08:57;11.50;85.60
20911;DHT22;10615;42.702;23.314;2023-10-31T05:09:57;11.50;85.60
20911;DHT22;10615;42.702;23.314;2023-10-31T05:10:58;11.50;85.70
20911;DHT22;10615;42.702;23.314;2023-10-31T05:11:59;11.50;85.70
20911;DHT22;10615;42.702;23.314;2023-10-31T05:13:01;11.60;85.90
20911;DHT22;10615;42.702;23.314;2023-10-31T05:14:02;11.60;85.80
20911;DHT22;10615;42.702;23.314;2023-10-31T05:15:04;11.70;85.90
20911;DHT22;10615;42.702;23.314;2023-10-31T05:16:05;11.70;85.80
20911;DHT22;10615;42.702;23.314;2023-10-31T05:17:06;11.80;85.70
20911;DHT22;10615;42.702;23.314;2023-10-31T05:18:06;11.90;85.60
20911;DHT22;10615;42.702;23.314;2023-10-31T05:19:07;12.00;85.30
20911;DHT22;10615;42.702;23.314;2023-10-31T05:20:08;12.00;85.00
20911;DHT22;10615;42.702;23.314;2023-10-31T05:21:09;12.10;84.80
20911;DHT22;10615;42.702;23.314;2023-10-31T05:22:10;12.10;84.60
20911;DHT22;10615;42.702;23.314;2023-10-31T05:23:11;12.20;84.30
20911;DHT22;10615;42.702;23.314;2023-10-31T05:24:12;12.30;84.10
20911;DHT22;10615;42.702;23.314;2023-10-31T05:25:12;12.40;83.80
20911;DHT22;10615;42.702;23.314;2023-10-31T05:26:13;12.50;83.40
20911;DHT22;10615;42.702;23.314;2023-10-31T05:27:14;12.60;83.10
20911;DHT22;10615;42.702;23.314;2023-10-31T05:28:14;12.70;82.80
20911;DHT22;10615;42.702;23.314;2023-10-31T05:29:15;12.70;82.40
20911;DHT22;10615;42.702;23.314;2023-10-31T05:30:16;12.80;82.10
20911;DHT22;10615;42.702;23.314;2023-10-31T05:31:17;12.90;81.80
20911;DHT22;10615;42.702;23.314;2023-10-31T05:32:18;13.00;81.50
20911;DHT22;10615;42.702;23.314;2023-10-31T05:33:18;13.00;81.30
20911;DHT22;10615;42.702;23.314;2023-10-31T05:34:19;13.10;80.90
20911;DHT22;10615;42.702;23.314;2023-10-31T05:35:20;13.20;80.70
20911;DHT22;10615;42.702;23.314;2023-10-31T05:36:22;13.30;80.50
20911;DHT22;10615;42.702;23.314;2023-10-31T05:37:23;13.30;80.20
20911;DHT22;10615;42.702;23.314;2023-10-31T05:38:24;13.50;80.00
20911;DHT22;10615;42.702;23.314;2023-10-31T05:39:24;13.50;79.50
20911;DHT22;10615;42.702;23.314;2023-10-31T05:40:25;13.60;79.20
20911;DHT22;10615;42.702;23.314;2023-10-31T05:41:27;13.70;78.90
20911;DHT22;10615;42.702;23.314;2023-10-31T05:42:28;13.80;78.60
20911;DHT22;10615;42.702;23.314;2023-10-31T05:43:29;13.90;78.30
20911;DHT22;10615;42.702;23.314;2023-10-31T05:44:30;13.90;77.90
20911;DHT22;10615;42.702;23.314;2023-10-31T05:45:31;14.00;77.50
20911;DHT22;10615;42.702;23.314;2023-10-31T05:46:31;14.10;77.30
20911;DHT22;10615;42.702;23.314;2023-10-31T05:47:37;14.10;77.10
20911;DHT22;10615;42.702;23.314;2023-10-31T05:48:38;14.20;76.80
20911;DHT22;10615;42.702;23.314;2023-10-31T05:49:39;14.30;76.50
20911;DHT22;10615;42.702;23.314;2023-10-31T05:50:41;14.40;76.20
20911;DHT22;10615;42.702;23.314;2023-10-31T05:51:42;14.50;76.00
20911;DHT22;10615;42.702;23.314;2023-10-31T05:52:43;14.60;75.50
20911;DHT22;10615;42.702;23.314;2023-10-31T05:53:46;14.70;75.20
20911;DHT22;10615;42.702;23.314;2023-10-31T05:54:47;14.80;74.90
20911;DHT22;10615;42.702;23.314;2023-10-31T05:55:48;14.90;74.40
20911;DHT22;10615;42.702;23.314;2023-10-31T05:56:48;15.00;74.10
20911;DHT22;10615;42.702;23.314;2023-10-31T05:57:49;15.00;73.60
20911;DHT22;10615;42.702;23.314;2023-10-31T05:58:50;15.10;73.40
20911;DHT22;10615;42.702;23.314;2023-10-31T05:59:51;15.20;73.10
20911;DHT22;10615;42.702;23.314;2023-10-31T06:00:51;15.30;72.90
20911;DHT22;10615;42.702;23.314;2023-10-31T06:01:52;15.30;72.50
20911;DHT22;10615;42.702;23.314;2023-10-31T06:02:53;15.40;72.30
20911;DHT22;10615;42.702;23.314;2023-10-31T06:03:53;15.40;72.10
20911;DHT22;10615;42.702;23.314;2023-10-31T06:04:54;15.50;72.00
20911;DHT22;10615;42.702;23.314;2023-10-31T06:05:55;15.60;71.80
20911;DHT22;10615;42.702;23.314;2023-10-31T06:06:55;15.70;71.50
20911;DHT22;10615;42.702;23.314;2023-10-31T06:07:56;15.80;71.10
20911;DHT22;10615;42.702;23.314;2023-10-31T06:08:56;15.80;70.80
20911;DHT22;10615;42.702;23.314;2023-10-31T06:09:57;15.90;70.70
20911;DHT22;10615;42.702;23.314;2023-10-31T06:10:59;16.00;70.50
20911;DHT22;10615;42.702;23.314;2023-10-31T06:12:01;16.10;70.20
20911;DHT22;10615;42.702;23.314;2023-10-31T06:13:01;16.20;70.00
20911;DHT22;10615;42.702;23.314;2023-10-31T06:14:02;16.30;69.60
20911;DHT22;10615;42.702;23.314;2023-10-31T06:15:03;16.30;69.20
20911;DHT22;10615;42.702;23.314;2023-10-31T06:16:04;16.30;68.60
20911;DHT22;10615;42.702;23.314;2023-10-31T06:17:05;16.40;68.50
20911;DHT22;10615;42.702;23.314;2023-10-31T06:18:06;16.40;68.20
20911;DHT22;10615;42.702;23.314;2023-10-31T06:19:06;16.30;67.90